createdAt,value
2023-05-21T00:00:17.189Z,13.10
2023-05-21T00:02:43.462Z,12.80
2023-05-21T00:05:14.394Z,11.10
2023-05-21T00:07:41.596Z,17.43
2023-05-21T00:10:08.523Z,11.30
2023-05-21T00:12:34.885Z,13.53
2023-05-21T00:15:01.290Z,12.63
2023-05-21T00:17:27.747Z,15.50
2023-05-21T00:19:54.072Z,11.17
2023-05-21T00:22:20.258Z,12.37
2023-05-21T00:24:47.100Z,11.27
2023-05-21T00:27:13.504Z,10.00
2023-05-21T00:29:40.649Z,11.90
2023-05-21T00:32:08.010Z,17.90
2023-05-21T00:34:34.230Z,10.67
2023-05-21T00:37:01.945Z,11.93
2023-05-21T00:39:28.192Z,10.53
2023-05-21T00:41:56.122Z,10.47
2023-05-21T00:44:23.089Z,12.20
2023-05-21T00:46:52.777Z,14.30
2023-05-21T00:49:19.257Z,8.97
2023-05-21T00:51:45.823Z,10.00
2023-05-21T00:54:12.374Z,10.23
2023-05-21T00:56:38.640Z,11.73
2023-05-21T00:59:05.635Z,15.10
2023-05-21T01:01:36.042Z,15.00
2023-05-21T01:04:02.836Z,12.20
2023-05-21T01:06:29.330Z,14.23
2023-05-21T01:08:55.714Z,12.03
2023-05-21T01:11:32.292Z,13.17
2023-05-21T01:13:58.633Z,18.13
2023-05-21T01:16:25.569Z,13.83
2023-05-21T01:18:53.134Z,15.53
2023-05-21T01:21:20.858Z,13.03
2023-05-21T01:27:29.700Z,9.03
2023-05-21T01:29:56.271Z,10.10
2023-05-21T01:32:26.952Z,13.93
2023-05-21T01:34:57.823Z,13.93
2023-05-21T01:37:29.285Z,10.93
2023-05-21T01:39:57.065Z,12.40
2023-05-21T01:42:23.916Z,9.17
2023-05-21T01:44:51.875Z,10.27
2023-05-21T01:47:18.735Z,12.77
2023-05-21T01:49:45.188Z,10.10
2023-05-21T01:52:12.232Z,12.47
2023-05-21T01:54:38.503Z,13.47
2023-05-21T01:57:05.934Z,10.43
2023-05-21T01:59:32.394Z,18.00
2023-05-21T02:01:59.374Z,16.10
2023-05-21T02:04:25.725Z,9.60
2023-05-21T02:06:54.041Z,11.07
2023-05-21T02:09:20.245Z,16.57
2023-05-21T02:11:46.442Z,11.30
2023-05-21T02:14:13.682Z,12.13
2023-05-21T02:16:40.982Z,16.33
2023-05-21T02:19:09.672Z,14.07
2023-05-21T02:21:36.052Z,14.67
2023-05-21T02:24:02.360Z,17.07
2023-05-21T02:26:28.787Z,13.97
2023-05-21T02:28:55.043Z,13.53
2023-05-21T02:31:21.232Z,15.27
2023-05-21T02:33:47.569Z,11.97
2023-05-21T02:36:14.764Z,12.53
2023-05-21T02:38:42.713Z,12.73
2023-05-21T02:41:10.399Z,12.03
2023-05-21T02:43:36.761Z,16.90
2023-05-21T02:46:04.165Z,11.63
2023-05-21T02:48:30.476Z,13.77
2023-05-21T02:50:56.890Z,15.30
2023-05-21T02:53:23.992Z,14.23
2023-05-21T02:55:50.445Z,14.70
2023-05-21T02:58:16.702Z,15.63
2023-05-21T03:00:42.957Z,17.27
2023-05-21T03:03:09.562Z,14.73
2023-05-21T03:05:36.083Z,14.00
2023-05-21T03:08:02.849Z,16.27
2023-05-21T03:10:29.957Z,15.60
2023-05-21T03:12:56.298Z,16.47
2023-05-21T03:15:23.194Z,13.73
2023-05-21T03:17:49.625Z,15.13
2023-05-21T03:20:17.970Z,14.33
2023-05-21T03:22:44.708Z,13.03
2023-05-21T03:25:11.192Z,12.17
2023-05-21T03:27:38.194Z,14.80
2023-05-21T03:30:06.824Z,12.57
2023-05-21T03:32:36.949Z,13.23
2023-05-21T03:35:03.896Z,12.83
2023-05-21T03:37:30.291Z,14.47
2023-05-21T03:39:56.495Z,11.30
2023-05-21T03:42:22.783Z,10.93
2023-05-21T03:44:49.791Z,11.53
2023-05-21T03:47:16.250Z,11.93
2023-05-21T03:49:42.507Z,14.37
2023-05-21T03:52:08.895Z,12.47
2023-05-21T03:54:35.437Z,11.17
2023-05-21T03:57:01.678Z,16.80
2023-05-21T03:59:27.918Z,11.23
2023-05-21T04:01:54.783Z,13.30
2023-05-21T04:04:21.056Z,13.30
2023-05-21T04:06:47.507Z,13.90
2023-05-21T04:09:13.714Z,12.03
2023-05-21T04:11:39.927Z,10.40
2023-05-21T04:14:06.495Z,14.97
2023-05-21T04:16:33.986Z,13.60
2023-05-21T04:19:01.082Z,11.27
2023-05-21T04:21:27.346Z,14.03
2023-05-21T04:23:53.635Z,13.13
2023-05-21T04:26:19.976Z,12.17
2023-05-21T04:28:47.114Z,12.43
2023-05-21T04:31:13.488Z,11.73
2023-05-21T04:33:41.334Z,13.30
2023-05-21T04:36:09.846Z,11.63
2023-05-21T04:38:36.607Z,11.20
2023-05-21T04:41:03.377Z,12.93
2023-05-21T04:43:31.229Z,12.50
2023-05-21T04:45:57.525Z,11.37
2023-05-21T04:48:25.103Z,10.97
2023-05-21T04:50:52.737Z,11.77
2023-05-21T04:53:19.922Z,19.00
2023-05-21T04:55:46.305Z,14.20
2023-05-21T04:58:12.896Z,12.77
2023-05-21T05:00:41.466Z,11.87
2023-05-21T05:03:08.098Z,12.20
2023-05-21T05:05:34.815Z,10.73
2023-05-21T05:08:01.740Z,13.97
2023-05-21T05:10:28.601Z,14.00
2023-05-21T05:12:54.863Z,13.37
2023-05-21T05:15:21.263Z,14.57
2023-05-21T05:17:49.702Z,20.97
2023-05-21T05:20:16.053Z,14.23
2023-05-21T05:22:42.349Z,12.33
2023-05-21T05:25:08.904Z,14.60
2023-05-21T05:27:37.776Z,13.40
2023-05-21T05:30:06.013Z,13.37
2023-05-21T05:32:32.419Z,10.77
2023-05-21T05:35:00.433Z,12.23
2023-05-21T05:37:28.566Z,12.10
2023-05-21T05:39:55.184Z,11.23
2023-05-21T05:42:21.530Z,13.93
2023-05-21T05:44:48.452Z,15.27
2023-05-21T05:47:14.802Z,11.27
2023-05-21T05:49:41.051Z,12.73
2023-05-21T05:52:07.454Z,12.83
2023-05-21T05:54:33.761Z,11.60
2023-05-21T05:57:00.120Z,16.27
2023-05-21T05:59:26.444Z,13.90
2023-05-21T06:01:53.335Z,14.73
2023-05-21T06:04:19.774Z,16.07
2023-05-21T06:06:46.622Z,14.47
2023-05-21T06:09:13.260Z,14.67
2023-05-21T06:11:39.508Z,12.87
2023-05-21T06:14:05.741Z,16.70
2023-05-21T06:16:33.036Z,13.73
2023-05-21T06:19:00.044Z,12.57
2023-05-21T06:21:26.339Z,15.90
2023-05-21T06:23:52.560Z,14.40
2023-05-21T06:26:19.087Z,11.77
2023-05-21T06:28:45.394Z,14.33
2023-05-21T06:31:13.175Z,11.10
2023-05-21T06:33:39.811Z,14.73
2023-05-21T06:36:06.919Z,13.70
2023-05-21T06:38:33.175Z,11.97
2023-05-21T06:40:59.588Z,14.97
2023-05-21T06:43:25.899Z,18.10
2023-05-21T06:45:52.347Z,19.53
2023-05-21T06:48:18.700Z,14.97
2023-05-21T06:50:45.046Z,15.30
2023-05-21T06:53:15.472Z,15.00
2023-05-21T06:55:43.628Z,14.73
2023-05-21T06:58:09.926Z,14.03
2023-05-21T07:00:36.329Z,15.57
2023-05-21T07:03:02.686Z,11.70
2023-05-21T07:05:28.999Z,12.33
2023-05-21T07:07:55.261Z,14.37
2023-05-21T07:10:22.262Z,14.40
2023-05-21T07:12:48.579Z,14.27
2023-05-21T07:15:14.847Z,14.30
2023-05-21T07:17:41.413Z,11.83
2023-05-21T07:20:09.274Z,12.13
2023-05-21T07:22:38.004Z,11.67
2023-05-21T07:25:05.165Z,13.20
2023-05-21T07:27:32.054Z,13.07
2023-05-21T07:29:58.312Z,17.37
2023-05-21T07:32:26.032Z,17.43
2023-05-21T07:34:54.357Z,12.23
2023-05-21T07:37:20.920Z,10.70
2023-05-21T07:39:47.256Z,14.97
2023-05-21T07:42:13.558Z,10.57
2023-05-21T07:44:40.500Z,13.07
2023-05-21T07:47:06.783Z,13.03
2023-05-21T07:49:33.064Z,11.73
2023-05-21T07:51:59.422Z,15.07
2023-05-21T07:54:25.748Z,14.60
2023-05-21T07:56:52.112Z,15.43
2023-05-21T07:59:18.441Z,13.57
2023-05-21T08:01:45.529Z,11.60
2023-05-21T08:04:12.090Z,12.63
2023-05-21T08:06:38.361Z,13.73
2023-05-21T08:09:06.005Z,12.03
2023-05-21T08:11:32.359Z,12.90
2023-05-21T08:13:58.662Z,12.80
2023-05-21T08:16:24.958Z,11.97
2023-05-21T08:18:52.037Z,11.07
2023-05-21T08:21:19.097Z,12.97
2023-05-21T08:23:45.341Z,17.80
2023-05-21T08:26:11.935Z,14.53
2023-05-21T08:28:38.734Z,21.97
2023-05-21T08:31:05.183Z,14.00
2023-05-21T08:33:31.532Z,10.57
2023-05-21T08:35:58.775Z,14.87
2023-05-21T08:38:26.652Z,14.00
2023-05-21T08:40:54.808Z,13.40
2023-05-21T08:43:21.530Z,19.53
2023-05-21T08:45:53.782Z,14.83
2023-05-21T08:48:22.519Z,16.73
2023-05-21T08:50:49.139Z,13.13
2023-05-21T08:53:27.175Z,13.23
2023-05-21T08:55:56.396Z,11.30
2023-05-21T08:58:22.790Z,14.30
2023-05-21T09:00:49.278Z,15.73
2023-05-21T09:03:15.999Z,12.73
2023-05-21T09:05:43.336Z,17.07
2023-05-21T09:08:14.549Z,16.23
2023-05-21T09:10:47.263Z,13.97
2023-05-21T09:13:14.008Z,20.23
2023-05-21T09:15:41.625Z,11.83
2023-05-21T09:18:08.057Z,12.63
2023-05-21T09:20:34.919Z,17.07
2023-05-21T09:23:03.357Z,13.50
2023-05-21T09:25:29.791Z,15.30
2023-05-21T09:27:56.839Z,16.17
2023-05-21T09:30:34.120Z,16.93
2023-05-21T09:33:02.628Z,18.83
2023-05-21T09:35:29.174Z,19.53
2023-05-21T09:37:56.598Z,16.63
2023-05-21T09:40:23.929Z,16.93
2023-05-21T09:42:51.964Z,18.00
2023-05-21T09:45:19.260Z,16.37
2023-05-21T09:47:46.171Z,13.07
2023-05-21T09:50:12.967Z,16.20
2023-05-21T09:52:41.875Z,16.90
2023-05-21T09:55:11.293Z,13.03
2023-05-21T09:57:40.988Z,13.80
2023-05-21T10:00:09.615Z,14.07
2023-05-21T10:02:37.753Z,15.37
2023-05-21T10:05:05.402Z,13.33
2023-05-21T10:07:32.095Z,14.97
2023-05-21T10:09:59.568Z,21.47
2023-05-21T10:12:28.082Z,13.53
2023-05-21T10:15:00.393Z,20.83
2023-05-21T10:17:27.677Z,16.93
2023-05-21T10:19:55.594Z,14.23
2023-05-21T10:22:22.503Z,15.23
2023-05-21T10:24:49.312Z,17.17
2023-05-21T10:27:16.644Z,17.77
2023-05-21T10:29:43.892Z,14.97
2023-05-21T10:32:11.781Z,16.53
2023-05-21T10:34:38.120Z,11.17
2023-05-21T10:37:07.886Z,19.30
2023-05-21T10:39:34.555Z,15.63
2023-05-21T10:42:09.230Z,17.27
2023-05-21T10:44:42.285Z,14.47
2023-05-21T10:47:28.504Z,14.97
2023-05-21T10:50:08.928Z,15.57
2023-05-21T10:52:50.677Z,19.77
2023-05-21T10:55:32.937Z,15.00
2023-05-21T10:58:15.657Z,17.47
2023-05-21T11:00:42.603Z,17.23
2023-05-21T11:03:10.698Z,17.27
2023-05-21T11:05:41.244Z,16.93
2023-05-21T11:08:22.081Z,16.60
2023-05-21T11:10:52.755Z,14.77
2023-05-21T11:13:20.873Z,18.50
2023-05-21T11:16:07.214Z,18.27
2023-05-21T11:19:01.097Z,15.30
2023-05-21T11:21:31.300Z,15.87
2023-05-21T11:24:10.147Z,17.20
2023-05-21T11:27:05.066Z,15.13
2023-05-21T11:29:43.501Z,18.67
2023-05-21T18:41:05.439Z,28.97
2023-05-21T18:43:31.791Z,32.10
2023-05-21T18:45:58.115Z,28.27
2023-05-21T18:48:24.924Z,29.20
2023-05-21T18:50:52.143Z,30.67
2023-05-21T18:53:18.738Z,26.47
2023-05-21T18:55:44.954Z,32.33
2023-05-21T18:58:12.086Z,38.83
2023-05-21T19:00:39.022Z,38.63
2023-05-21T19:03:05.382Z,40.03
2023-05-21T19:05:31.710Z,33.43
2023-05-21T19:07:59.502Z,36.30
2023-05-21T19:10:25.863Z,31.30
2023-05-21T19:12:52.467Z,33.67
2023-05-21T19:15:19.544Z,40.77
2023-05-21T19:17:46.035Z,36.00
2023-05-21T19:20:22.453Z,34.57
2023-05-21T19:22:48.743Z,31.23
2023-05-21T19:25:15.347Z,34.63
2023-05-21T19:27:41.688Z,32.40
2023-05-21T19:30:10.068Z,31.80
2023-05-21T19:32:36.941Z,32.23
2023-05-21T19:35:04.835Z,30.93
2023-05-21T19:37:31.302Z,28.83
2023-05-21T19:39:57.636Z,31.40
2023-05-21T19:42:23.937Z,32.47
2023-05-21T19:44:50.193Z,34.00
2023-05-21T19:47:16.701Z,34.77
2023-05-21T19:49:43.694Z,40.17
2023-05-21T19:52:11.311Z,38.20
2023-05-21T19:54:37.625Z,39.57
2023-05-21T19:57:04.401Z,40.40
2023-05-21T19:59:30.709Z,40.50
2023-05-21T20:01:57.038Z,40.90
2023-05-21T20:04:23.405Z,40.43
2023-05-21T20:06:51.202Z,43.63
2023-05-21T20:09:17.432Z,36.40
2023-05-21T20:11:43.998Z,46.27
2023-05-21T20:14:10.304Z,40.93
2023-05-21T20:16:36.818Z,43.70
2023-05-21T20:19:03.192Z,37.40
2023-05-21T20:21:30.734Z,48.20
2023-05-21T20:23:57.598Z,41.13
2023-05-21T20:26:25.406Z,40.10
2023-05-21T20:28:51.602Z,42.57
2023-05-21T20:31:18.078Z,48.70
2023-05-21T20:33:44.558Z,41.30
2023-05-21T20:36:12.548Z,48.73
2023-05-21T20:38:41.500Z,41.97
2023-05-21T20:41:08.636Z,40.47
2023-05-21T20:43:36.576Z,43.17
2023-05-21T20:46:04.885Z,47.77
2023-05-21T20:48:31.450Z,50.47
2023-05-21T20:50:58.102Z,44.63
2023-05-21T20:53:24.566Z,42.70
2023-05-21T20:55:53.917Z,46.80
2023-05-21T20:58:21.692Z,53.03
2023-05-21T21:00:49.660Z,52.50
2023-05-21T21:03:17.305Z,48.47
2023-05-21T21:05:43.832Z,48.97
2023-05-21T21:08:10.218Z,50.33
2023-05-21T21:10:37.558Z,48.80
2023-05-21T21:13:05.662Z,50.90
2023-05-21T21:15:32.586Z,50.20
2023-05-21T21:17:58.856Z,53.20
2023-05-21T21:20:25.143Z,53.63
2023-05-21T21:22:51.493Z,51.50
2023-05-21T21:25:17.930Z,47.60
2023-05-21T21:27:44.255Z,50.77
2023-05-21T21:30:11.190Z,49.97
2023-05-21T21:32:38.188Z,48.73
2023-05-21T21:35:05.175Z,50.07
2023-05-21T21:37:31.448Z,47.20
2023-05-21T21:39:57.681Z,48.83
2023-05-21T21:42:23.936Z,55.40
2023-05-21T21:44:50.232Z,54.43
2023-05-21T21:47:16.603Z,58.40
2023-05-21T21:49:43.713Z,58.60
2023-05-21T21:52:11.762Z,54.13
2023-05-21T21:54:37.989Z,55.83
2023-05-21T21:57:04.635Z,56.33
2023-05-21T21:59:31.024Z,53.37
2023-05-21T22:01:57.842Z,56.00
2023-05-21T22:04:24.245Z,54.90
2023-05-21T22:06:52.900Z,56.93
2023-05-21T22:09:21.632Z,57.00
2023-05-21T22:11:47.990Z,58.07
2023-05-21T22:14:14.779Z,52.80
2023-05-21T22:16:41.124Z,53.50
2023-05-21T22:19:07.741Z,51.10
2023-05-21T22:21:34.024Z,52.00
2023-05-21T22:24:01.015Z,51.53
2023-05-21T22:26:27.247Z,51.13
2023-05-21T22:28:53.593Z,50.43
2023-05-21T22:31:20.179Z,56.37
2023-05-21T22:33:46.478Z,54.07
2023-05-21T22:36:12.757Z,46.70
2023-05-21T22:38:38.957Z,50.67
2023-05-21T22:41:06.011Z,48.17
2023-05-21T22:43:33.202Z,49.10
2023-05-21T22:45:59.529Z,52.70
2023-05-21T22:48:25.895Z,47.87
2023-05-21T22:50:52.630Z,47.90
2023-05-21T22:53:18.887Z,49.90
2023-05-21T22:55:45.210Z,49.20
2023-05-21T22:58:12.300Z,51.90
2023-05-21T23:00:38.673Z,50.90
2023-05-21T23:03:05.266Z,52.77
2023-05-21T23:05:31.648Z,48.60
2023-05-21T23:07:57.904Z,51.37
2023-05-21T23:10:24.321Z,54.07
2023-05-21T23:12:50.546Z,43.87
2023-05-21T23:15:18.179Z,49.30
2023-05-21T23:17:45.095Z,46.80
2023-05-21T23:20:11.650Z,45.90
2023-05-21T23:22:37.816Z,43.97
2023-05-21T23:25:05.579Z,42.13
2023-05-21T23:27:31.992Z,43.03
2023-05-21T23:29:58.282Z,46.67
2023-05-21T23:32:25.142Z,40.23
2023-05-21T23:34:51.463Z,47.13
2023-05-21T23:37:18.414Z,41.10
2023-05-21T23:39:48.608Z,42.10
2023-05-21T23:42:15.147Z,40.60
2023-05-21T23:44:41.403Z,39.17
2023-05-21T23:47:07.564Z,38.40
2023-05-21T23:49:34.575Z,40.03
2023-05-21T23:52:01.047Z,39.23
2023-05-21T23:54:27.340Z,35.73
2023-05-21T23:56:53.606Z,39.03
2023-05-21T23:59:19.990Z,32.90
